createdAt,value
2018-04-01T09:20:53.226Z,28
2018-04-01T09:25:55.637Z,24
2018-04-01T09:30:58.069Z,23.5
2018-04-01T09:36:00.531Z,25
2018-04-01T09:41:02.975Z,23
2018-04-01T09:46:05.406Z,23.5
2018-04-01T09:51:07.920Z,25.5
2018-04-01T09:56:10.323Z,23
2018-04-01T10:01:12.746Z,24
2018-04-01T10:06:15.226Z,22
2018-04-01T10:11:17.704Z,24
2018-04-01T10:16:20.154Z,24
2018-04-01T10:21:22.537Z,24
2018-04-01T10:26:25.097Z,22
2018-04-01T10:36:29.842Z,18
2018-04-01T10:41:32.366Z,19
2018-04-01T10:46:34.722Z,21.5
2018-04-01T10:51:37.181Z,20
2018-04-01T10:56:39.643Z,20
2018-04-01T11:11:46.979Z,14
2018-04-01T11:16:49.424Z,16
2018-04-01T11:21:51.876Z,14.5
2018-04-01T11:26:54.294Z,15
2018-04-01T11:31:56.739Z,16
2018-04-01T11:36:59.206Z,18
2018-04-01T11:42:01.664Z,17
2018-04-01T11:47:04.063Z,17
2018-04-01T11:52:06.550Z,16
2018-04-01T11:57:08.997Z,16.5
2018-04-01T12:02:11.405Z,17
2018-04-01T12:07:13.840Z,17
2018-04-01T12:12:16.292Z,17
2018-04-01T12:17:18.897Z,17
2018-04-01T12:22:21.166Z,18
2018-04-01T12:27:23.634Z,19.5
2018-04-01T12:37:28.513Z,18
2018-04-01T12:42:30.967Z,19.5
2018-04-01T12:47:33.431Z,19
2018-04-01T12:52:35.836Z,18
2018-04-01T12:57:38.280Z,17
2018-04-01T13:02:40.722Z,18
2018-04-01T13:07:43.198Z,19
2018-04-01T13:12:45.621Z,16
2018-04-01T13:17:48.108Z,16
2018-04-01T13:22:50.511Z,14.5
2018-04-01T13:27:52.972Z,13
2018-04-01T13:32:55.470Z,13
2018-04-01T13:37:57.864Z,10
2018-04-01T13:43:00.311Z,11
2018-04-01T13:48:02.814Z,11
2018-04-01T13:53:05.248Z,9.5
2018-04-01T13:58:07.714Z,10
2018-04-01T14:03:10.113Z,9
2018-04-01T14:08:12.556Z,9
2018-04-01T14:13:15.037Z,11
2018-04-01T14:18:17.513Z,11
2018-04-01T14:23:19.892Z,12
2018-04-01T14:28:22.355Z,13
2018-04-01T14:33:24.766Z,11
2018-04-01T14:38:27.240Z,12
2018-04-01T14:43:29.671Z,10
2018-04-01T14:48:32.118Z,12
2018-04-01T14:53:34.565Z,10
2018-04-01T14:58:37.000Z,9
2018-04-01T15:03:39.506Z,10
2018-04-01T15:08:41.897Z,12
2018-04-01T15:13:44.357Z,13
2018-04-01T15:18:46.789Z,10.5
2018-04-01T15:23:49.250Z,10
2018-04-01T15:28:51.708Z,12
2018-04-01T15:33:54.139Z,15
2018-04-01T15:43:59.014Z,16.5
2018-04-01T15:49:01.442Z,19
2018-04-01T15:54:03.903Z,19.5
2018-04-01T15:59:06.339Z,20
2018-04-01T16:04:08.789Z,21
2018-04-01T16:14:13.670Z,23
2018-04-01T16:19:16.167Z,25
2018-04-01T16:24:18.632Z,28
2018-04-01T16:29:21.014Z,27.5
2018-04-01T16:34:23.464Z,25
2018-04-01T16:39:25.904Z,28.5
2018-04-01T16:44:28.346Z,27
2018-04-01T16:49:30.814Z,28
2018-04-01T16:54:33.234Z,29
2018-04-01T16:59:35.669Z,29.5
2018-04-01T17:04:38.127Z,28.5
2018-04-01T17:09:40.710Z,25
